sensor_id;sensor_type;location;lat;lon;timestamp;pressure;altitude;pressure_sealevel;temperature;humidity
35758;BME280;21879;50.110;18.900;2022-12-07T00:02:57;98190.17;;;4.14;72.86
35758;BME280;21879;50.110;18.900;2022-12-07T00:13:25;98186.29;;;4.49;72.32
35758;BME280;21879;50.110;18.900;2022-12-07T00:23:53;98175.41;;;4.71;71.76
35758;BME280;21879;50.110;18.900;2022-12-07T00:34:20;98169.41;;;4.79;71.42
35758;BME280;21879;50.110;18.900;2022-12-07T00:44:47;98158.62;;;4.90;71.05
35758;BME280;21879;50.110;18.900;2022-12-07T00:55:15;98149.35;;;4.96;70.72
35758;BME280;21879;50.110;18.900;2022-12-07T01:05:51;98149.16;;;4.98;70.58
35758;BME280;21879;50.110;18.900;2022-12-07T01:16:19;98143.17;;;5.05;70.55
35758;BME280;21879;50.110;18.900;2022-12-07T01:26:50;98136.98;;;5.12;70.45
35758;BME280;21879;50.110;18.900;2022-12-07T01:37:17;98129.02;;;5.00;70.34
35758;BME280;21879;50.110;18.900;2022-12-07T01:47:48;98129.45;;;4.79;70.28
35758;BME280;21879;50.110;18.900;2022-12-07T01:58:17;98127.42;;;4.50;70.93
35758;BME280;21879;50.110;18.900;2022-12-07T02:08:45;98118.46;;;4.48;71.59
35758;BME280;21879;50.110;18.900;2022-12-07T02:30:31;98117.84;;;4.29;71.63
35758;BME280;21879;50.110;18.900;2022-12-07T02:41:04;98116.63;;;4.28;72.38
35758;BME280;21879;50.110;18.900;2022-12-07T02:51:33;98119.21;;;4.29;72.49
35758;BME280;21879;50.110;18.900;2022-12-07T03:02:08;98114.88;;;4.23;72.68
35758;BME280;21879;50.110;18.900;2022-12-07T03:12:44;98110.96;;;4.31;73.02
35758;BME280;21879;50.110;18.900;2022-12-07T03:23:16;98108.73;;;4.30;72.71
35758;BME280;21879;50.110;18.900;2022-12-07T03:33:49;98116.17;;;4.11;72.37
35758;BME280;21879;50.110;18.900;2022-12-07T03:44:20;98108.20;;;4.03;72.52
35758;BME280;21879;50.110;18.900;2022-12-07T03:54:52;98102.02;;;4.03;72.68
35758;BME280;21879;50.110;18.900;2022-12-07T04:05:23;98100.96;;;3.99;72.69
35758;BME280;21879;50.110;18.900;2022-12-07T04:15:51;98108.78;;;4.10;72.71
35758;BME280;21879;50.110;18.900;2022-12-07T04:26:18;98106.85;;;4.07;72.57
35758;BME280;21879;50.110;18.900;2022-12-07T04:36:46;98107.34;;;4.02;72.72
35758;BME280;21879;50.110;18.900;2022-12-07T04:47:13;98109.91;;;4.02;72.70
35758;BME280;21879;50.110;18.900;2022-12-07T04:57:40;98116.24;;;3.98;72.33
35758;BME280;21879;50.110;18.900;2022-12-07T05:08:08;98114.92;;;3.81;72.47
35758;BME280;21879;50.110;18.900;2022-12-07T05:18:35;98120.52;;;3.94;72.76
35758;BME280;21879;50.110;18.900;2022-12-07T05:29:03;98119.08;;;4.07;72.44
35758;BME280;21879;50.110;18.900;2022-12-07T05:39:31;98123.42;;;4.15;72.15
35758;BME280;21879;50.110;18.900;2022-12-07T05:49:59;98119.38;;;4.02;71.81
35758;BME280;21879;50.110;18.900;2022-12-07T06:00:27;98119.39;;;3.81;71.78
35758;BME280;21879;50.110;18.900;2022-12-07T06:10:54;98121.68;;;3.85;72.04
35758;BME280;21879;50.110;18.900;2022-12-07T06:21:36;98125.36;;;3.97;72.10
35758;BME280;21879;50.110;18.900;2022-12-07T06:32:04;98136.48;;;4.11;72.11
35758;BME280;21879;50.110;18.900;2022-12-07T06:42:32;98146.42;;;4.08;71.79
35758;BME280;21879;50.110;18.900;2022-12-07T06:52:59;98153.69;;;4.14;71.68
35758;BME280;21879;50.110;18.900;2022-12-07T07:03:27;98158.27;;;4.02;71.30
35758;BME280;21879;50.110;18.900;2022-12-07T07:13:54;98157.02;;;3.77;70.90
35758;BME280;21879;50.110;18.900;2022-12-07T07:24:28;98160.21;;;3.67;71.44
35758;BME280;21879;50.110;18.900;2022-12-07T07:34:55;98166.95;;;3.53;71.53
35758;BME280;21879;50.110;18.900;2022-12-07T07:45:24;98164.34;;;3.50;71.93
35758;BME280;21879;50.110;18.900;2022-12-07T07:55:55;98161.70;;;3.61;71.99
35758;BME280;21879;50.110;18.900;2022-12-07T08:06:23;98161.08;;;3.52;71.86
35758;BME280;21879;50.110;18.900;2022-12-07T08:16:57;98172.20;;;3.46;71.95
35758;BME280;21879;50.110;18.900;2022-12-07T08:27:24;98175.08;;;3.42;72.48
35758;BME280;21879;50.110;18.900;2022-12-07T08:37:53;98179.45;;;3.50;72.95
35758;BME280;21879;50.110;18.900;2022-12-07T08:48:20;98187.63;;;3.59;72.91
35758;BME280;21879;50.110;18.900;2022-12-07T08:58:50;98189.73;;;3.64;73.06
35758;BME280;21879;50.110;18.900;2022-12-07T09:09:18;98187.66;;;3.64;73.35
35758;BME280;21879;50.110;18.900;2022-12-07T09:19:45;98178.61;;;3.68;73.63
35758;BME280;21879;50.110;18.900;2022-12-07T09:30:13;98174.08;;;3.81;73.85
35758;BME280;21879;50.110;18.900;2022-12-07T09:40:41;98162.03;;;3.79;73.53
35758;BME280;21879;50.110;18.900;2022-12-07T09:51:16;98147.00;;;3.72;73.82
35758;BME280;21879;50.110;18.900;2022-12-07T10:01:50;98135.61;;;3.69;73.91
35758;BME280;21879;50.110;18.900;2022-12-07T10:12:16;98119.30;;;3.70;74.22
35758;BME280;21879;50.110;18.900;2022-12-07T10:23:02;98108.80;;;3.67;74.95
35758;BME280;21879;50.110;18.900;2022-12-07T10:33:36;98094.45;;;3.79;75.25
35758;BME280;21879;50.110;18.900;2022-12-07T10:44:04;98087.34;;;3.94;74.74
35758;BME280;21879;50.110;18.900;2022-12-07T10:54:42;98078.09;;;4.03;74.83
35758;BME280;21879;50.110;18.900;2022-12-07T11:05:21;98073.71;;;4.18;74.58
35758;BME280;21879;50.110;18.900;2022-12-07T11:15:57;98067.49;;;4.12;73.87
35758;BME280;21879;50.110;18.900;2022-12-07T11:26:38;98063.69;;;4.09;73.47
35758;BME280;21879;50.110;18.900;2022-12-07T11:37:09;98056.65;;;4.12;73.29
35758;BME280;21879;50.110;18.900;2022-12-07T11:47:43;98038.96;;;4.16;72.99
35758;BME280;21879;50.110;18.900;2022-12-07T11:58:23;98029.33;;;4.18;72.80
35758;BME280;21879;50.110;18.900;2022-12-07T12:09:04;98027.48;;;4.28;72.88
35758;BME280;21879;50.110;18.900;2022-12-07T12:20:03;98032.14;;;4.30;72.57
35758;BME280;21879;50.110;18.900;2022-12-07T12:30:33;98041.64;;;4.37;72.35
35758;BME280;21879;50.110;18.900;2022-12-07T12:41:01;98035.30;;;4.45;72.04
35758;BME280;21879;50.110;18.900;2022-12-07T12:51:37;98021.71;;;4.45;71.38
35758;BME280;21879;50.110;18.900;2022-12-07T13:02:21;98013.63;;;4.48;71.17
35758;BME280;21879;50.110;18.900;2022-12-07T13:12:58;98024.13;;;4.48;69.90
35758;BME280;21879;50.110;18.900;2022-12-07T13:23:29;98025.99;;;4.43;68.64
35758;BME280;21879;50.110;18.900;2022-12-07T13:33:57;98024.23;;;4.33;67.28
35758;BME280;21879;50.110;18.900;2022-12-07T13:44:26;98038.83;;;4.27;66.73
35758;BME280;21879;50.110;18.900;2022-12-07T13:54:59;98040.84;;;4.15;66.44
35758;BME280;21879;50.110;18.900;2022-12-07T14:05:29;98039.56;;;4.03;66.18
35758;BME280;21879;50.110;18.900;2022-12-07T14:15:58;98052.99;;;4.04;66.18
35758;BME280;21879;50.110;18.900;2022-12-07T14:26:26;98049.74;;;4.08;66.13
35758;BME280;21879;50.110;18.900;2022-12-07T14:36:53;98064.55;;;4.09;66.09
35758;BME280;21879;50.110;18.900;2022-12-07T14:47:21;98064.89;;;4.08;65.75
35758;BME280;21879;50.110;18.900;2022-12-07T14:58:13;98072.42;;;4.04;65.73
35758;BME280;21879;50.110;18.900;2022-12-07T15:08:41;98076.34;;;3.97;65.78
35758;BME280;21879;50.110;18.900;2022-12-07T15:19:14;98078.70;;;3.90;65.44
35758;BME280;21879;50.110;18.900;2022-12-07T15:29:54;98088.00;;;3.91;65.61
35758;BME280;21879;50.110;18.900;2022-12-07T15:40:21;98092.52;;;3.96;65.68
35758;BME280;21879;50.110;18.900;2022-12-07T15:50:49;98098.02;;;3.97;65.55
35758;BME280;21879;50.110;18.900;2022-12-07T16:01:17;98100.20;;;3.92;65.55
35758;BME280;21879;50.110;18.900;2022-12-07T16:11:45;98098.16;;;3.94;65.57
35758;BME280;21879;50.110;18.900;2022-12-07T16:22:13;98103.73;;;3.81;65.37
35758;BME280;21879;50.110;18.900;2022-12-07T16:32:40;98100.73;;;3.69;65.49
35758;BME280;21879;50.110;18.900;2022-12-07T16:43:08;98107.02;;;3.62;65.71
35758;BME280;21879;50.110;18.900;2022-12-07T16:53:37;98106.51;;;3.62;65.80
35758;BME280;21879;50.110;18.900;2022-12-07T17:04:05;98108.20;;;3.39;65.87
35758;BME280;21879;50.110;18.900;2022-12-07T17:14:35;98106.13;;;3.21;66.29
35758;BME280;21879;50.110;18.900;2022-12-07T17:25:20;98107.21;;;3.10;66.54
35758;BME280;21879;50.110;18.900;2022-12-07T17:35:48;98112.59;;;2.97;67.12
35758;BME280;21879;50.110;18.900;2022-12-07T17:46:15;98107.88;;;2.92;67.40
35758;BME280;21879;50.110;18.900;2022-12-07T17:56:43;98104.20;;;2.85;67.82
35758;BME280;21879;50.110;18.900;2022-12-07T18:07:11;98104.98;;;2.78;68.09
35758;BME280;21879;50.110;18.900;2022-12-07T18:17:40;98111.98;;;2.74;68.49
35758;BME280;21879;50.110;18.900;2022-12-07T18:28:08;98113.63;;;2.69;68.95
35758;BME280;21879;50.110;18.900;2022-12-07T18:38:36;98098.22;;;2.73;69.38
35758;BME280;21879;50.110;18.900;2022-12-07T18:49:05;98082.92;;;2.71;69.25
35758;BME280;21879;50.110;18.900;2022-12-07T18:59:32;98096.04;;;2.63;69.30
35758;BME280;21879;50.110;18.900;2022-12-07T19:10:15;98101.88;;;2.63;69.64
35758;BME280;21879;50.110;18.900;2022-12-07T19:20:43;98106.36;;;2.66;69.76
35758;BME280;21879;50.110;18.900;2022-12-07T19:31:11;98107.64;;;2.71;69.89
35758;BME280;21879;50.110;18.900;2022-12-07T19:41:38;98112.28;;;2.71;69.91
35758;BME280;21879;50.110;18.900;2022-12-07T19:52:09;98118.80;;;2.71;70.07
35758;BME280;21879;50.110;18.900;2022-12-07T20:02:37;98125.92;;;2.79;69.54
35758;BME280;21879;50.110;18.900;2022-12-07T20:13:04;98126.63;;;2.80;69.55
35758;BME280;21879;50.110;18.900;2022-12-07T20:23:50;98124.33;;;2.89;69.26
35758;BME280;21879;50.110;18.900;2022-12-07T20:34:17;98129.91;;;2.95;69.16
35758;BME280;21879;50.110;18.900;2022-12-07T20:44:45;98132.18;;;2.99;68.97
35758;BME280;21879;50.110;18.900;2022-12-07T20:55:12;98138.42;;;3.04;68.83
35758;BME280;21879;50.110;18.900;2022-12-07T21:05:40;98134.15;;;3.07;68.75
35758;BME280;21879;50.110;18.900;2022-12-07T21:16:17;98125.11;;;3.13;68.76
35758;BME280;21879;50.110;18.900;2022-12-07T21:26:46;98132.17;;;3.14;68.63
35758;BME280;21879;50.110;18.900;2022-12-07T21:37:14;98142.55;;;3.21;68.66
35758;BME280;21879;50.110;18.900;2022-12-07T21:47:42;98142.17;;;3.19;68.51
35758;BME280;21879;50.110;18.900;2022-12-07T21:58:09;98145.55;;;3.13;68.46
35758;BME280;21879;50.110;18.900;2022-12-07T22:08:37;98153.16;;;3.02;68.65
35758;BME280;21879;50.110;18.900;2022-12-07T22:19:04;98153.06;;;2.93;68.66
35758;BME280;21879;50.110;18.900;2022-12-07T22:29:32;98154.19;;;2.88;68.77
35758;BME280;21879;50.110;18.900;2022-12-07T22:40:00;98151.18;;;2.79;68.98
35758;BME280;21879;50.110;18.900;2022-12-07T22:50:27;98154.88;;;2.73;68.81
35758;BME280;21879;50.110;18.900;2022-12-07T23:00:54;98154.17;;;2.72;69.04
35758;BME280;21879;50.110;18.900;2022-12-07T23:11:25;98151.80;;;2.74;69.21
35758;BME280;21879;50.110;18.900;2022-12-07T23:22:11;98144.40;;;2.73;69.39
35758;BME280;21879;50.110;18.900;2022-12-07T23:32:38;98146.38;;;2.79;69.85
35758;BME280;21879;50.110;18.900;2022-12-07T23:43:06;98148.00;;;2.87;69.65
35758;BME280;21879;50.110;18.900;2022-12-07T23:53:34;98138.77;;;2.90;69.52
